Time;durP1;ratioP1;P1;durP2;ratioP2;P2;SDS_P1;SDS_P2;PMS_P1;PMS_P2;Temp;Humidity;BMP_temperature;BMP_pressure;BME280_temperature;BME280_humidity;BME280_pressure;Samples;Min_cycle;Max_cycle;Signal;HPM_P1;HPM_P2
2022/11/16 00:01:21;;;;;;;0.30;0.30;;;;;;;10.63;100.00;100561.00;10520755;28;20052;-80
2022/11/16 00:06:24;;;;;;;0.90;0.57;;;;;;;10.64;100.00;100552.44;10505318;28;20051;-80
2022/11/16 00:11:37;;;;;;;0.38;0.38;;;;;;;10.65;100.00;100549.03;10536725;28;20101;-79
2022/11/16 00:16:39;;;;;;;0.70;0.47;;;;;;;10.64;100.00;100557.59;10536964;28;20067;-80
2022/11/16 00:21:41;;;;;;;0.90;0.60;;;;;;;10.65;100.00;100549.03;10520692;28;20526;-80
2022/11/16 00:26:43;;;;;;;1.63;1.02;;;;;;;10.66;100.00;100548.22;10506656;28;20055;-81
2022/11/16 00:31:47;;;;;;;0.63;0.55;;;;;;;10.67;100.00;100561.94;10549288;28;20039;-81
2022/11/16 00:36:49;;;;;;;0.75;0.50;;;;;;;10.65;100.00;100559.34;10540707;28;20048;-81
2022/11/16 00:41:52;;;;;;;0.32;0.28;;;;;;;10.65;100.00;100563.66;10511033;28;20037;-80
2022/11/16 00:46:54;;;;;;;0.35;0.30;;;;;;;10.65;100.00;100556.78;10540642;28;20119;-80
2022/11/16 00:51:55;;;;;;;0.55;0.40;;;;;;;10.63;100.00;100551.59;10518173;28;20070;-80
2022/11/16 00:56:57;;;;;;;2.30;0.28;;;;;;;10.61;100.00;100548.13;10508717;28;20056;-81
2022/11/16 01:01:59;;;;;;;0.20;0.10;;;;;;;10.62;100.00;100554.13;10509978;28;20048;-80
2022/11/16 01:07:01;;;;;;;1.13;0.70;;;;;;;10.59;100.00;100547.19;10525093;28;20436;-79
2022/11/16 01:12:09;;;;;;;0.40;0.40;;;;;;;10.60;100.00;100548.09;10525921;28;20491;-81
2022/11/16 01:17:13;;;;;;;5.10;1.13;;;;;;;10.60;100.00;100548.09;10543952;28;20040;-81
2022/11/16 01:22:15;;;;;;;0.70;0.60;;;;;;;10.58;100.00;100552.34;10524322;28;20044;-80
2022/11/16 01:27:16;;;;;;;1.85;0.45;;;;;;;10.58;100.00;100545.47;10508895;28;20084;-81
2022/11/16 01:32:19;;;;;;;1.52;0.50;;;;;;;10.54;100.00;100540.22;10524096;28;20071;-80
2022/11/16 01:37:22;;;;;;;0.28;0.28;;;;;;;10.54;100.00;100542.78;10539941;28;20051;-81
2022/11/16 01:42:27;;;;;;;0.98;0.57;;;;;;;10.56;100.00;100543.69;10526708;28;20032;-82
2022/11/16 01:47:32;;;;;;;0.25;0.20;;;;;;;10.52;100.00;100536.75;10541451;28;20047;-81
2022/11/16 01:52:41;;;;;;;0.20;0.20;;;;;;;10.51;100.00;100535.88;10523502;28;20040;-81
2022/11/16 01:57:45;;;;;;;0.73;0.68;;;;;;;10.50;100.00;100534.13;10536452;28;20136;-81
2022/11/16 02:02:47;;;;;;;0.63;0.35;;;;;;;10.53;100.00;100525.63;10528201;28;20043;-82
2022/11/16 02:14:05;;;;;;;0.47;0.47;;;;;;;10.51;100.00;100540.16;10537423;28;20418;-82
2022/11/16 02:19:39;;;;;;;3.22;1.02;;;;;;;10.50;100.00;100513.53;10523085;28;20052;-82
2022/11/16 02:24:59;;;;;;;1.00;0.60;;;;;;;10.50;100.00;100521.25;10509675;28;20040;-81
2022/11/16 02:30:02;;;;;;;0.38;0.35;;;;;;;10.51;100.00;100524.72;10521826;28;20047;-81
2022/11/16 02:35:11;;;;;;;0.47;0.38;;;;;;;10.53;100.00;100538.50;10512396;28;20044;-81
2022/11/16 02:40:16;;;;;;;3.08;1.08;;;;;;;10.56;100.00;100548.84;10522294;28;20505;-81
2022/11/16 02:45:46;;;;;;;0.88;0.88;;;;;;;10.59;100.00;100554.94;10522020;28;20127;-80
2022/11/16 02:50:52;;;;;;;0.20;0.20;;;;;;;10.57;100.00;100548.03;10521814;28;20048;-79
2022/11/16 02:55:55;;;;;;;0.93;0.60;;;;;;;10.58;100.00;100542.03;10510624;28;20040;-81
2022/11/16 03:01:05;;;;;;;1.95;1.15;;;;;;;10.57;100.00;100556.63;10527809;28;20105;-81
2022/11/16 03:06:18;;;;;;;0.73;0.52;;;;;;;10.56;100.00;100559.16;10545873;28;20044;-80
2022/11/16 03:16:47;;;;;;;0.45;0.22;;;;;;;10.56;100.00;100533.41;10480253;28;20040;-80
2022/11/16 03:21:58;;;;;;;3.30;1.73;;;;;;;10.54;100.00;100545.38;10518869;28;20513;-80
2022/11/16 03:27:08;;;;;;;1.98;0.93;;;;;;;10.55;100.00;100544.53;10522651;28;20097;-80
2022/11/16 03:32:41;;;;;;;0.80;0.55;;;;;;;10.51;100.00;100545.31;10539858;28;20032;-80
2022/11/16 03:37:46;;;;;;;2.28;0.32;;;;;;;10.51;100.00;100540.16;10521509;28;20055;-79
2022/11/16 03:43:54;;;;;;;0.50;0.43;;;;;;;10.55;100.00;100547.09;10522141;28;20044;-80
2022/11/16 03:48:59;;;;;;;0.45;0.45;;;;;;;10.52;100.00;100529.03;10520643;28;20483;-80
2022/11/16 03:54:05;;;;;;;0.30;0.25;;;;;;;10.52;100.00;100529.88;10520843;28;20101;-80
2022/11/16 03:59:08;;;;;;;1.38;0.63;;;;;;;10.55;100.00;100535.13;10519940;28;20071;-80
2022/11/16 04:24:10;;;;;;;0.75;0.57;;;;;;;10.56;100.00;100529.13;10518481;28;20156;-80
2022/11/16 04:25:38;;;;;;;3.30;0.85;;;;;;;10.62;100.00;100538.66;10527862;28;20040;-81
2022/11/16 04:47:07;;;;;;;1.77;1.15;;;;;;;10.57;100.00;100535.13;10486281;28;20098;-80
2022/11/16 04:52:11;;;;;;;2.35;1.40;;;;;;;10.58;100.00;100542.03;10542774;28;20098;-79
2022/11/16 04:57:13;;;;;;;1.27;0.70;;;;;;;10.58;100.00;100548.03;10528403;28;20479;-80
2022/11/16 05:02:16;;;;;;;2.00;0.95;;;;;;;10.58;100.00;100548.03;10521870;28;20517;-79
2022/11/16 05:07:23;;;;;;;1.65;1.33;;;;;;;10.55;100.00;100548.00;10511375;28;20051;-79
2022/11/16 05:12:32;;;;;;;0.35;0.22;;;;;;;10.52;100.00;100557.38;10526933;28;20052;-79
2022/11/16 05:17:36;;;;;;;1.23;0.98;;;;;;;10.50;100.00;100574.50;10512421;28;20093;-79
2022/11/16 05:22:43;;;;;;;2.38;0.45;;;;;;;10.47;100.00;100581.31;10518048;28;20052;-79
2022/11/16 05:27:45;;;;;;;1.75;0.50;;;;;;;10.44;100.00;100581.25;10518558;28;20054;-79
2022/11/16 05:32:50;;;;;;;0.80;0.43;;;;;;;10.44;100.00;100594.13;10526241;28;20384;-79
2022/11/16 05:37:54;;;;;;;0.55;0.30;;;;;;;10.44;100.00;100595.81;10526096;28;20048;-79
2022/11/16 05:42:56;;;;;;;0.63;0.60;;;;;;;10.44;100.00;100590.66;10545299;28;20040;-79
2022/11/16 05:48:00;;;;;;;0.75;0.40;;;;;;;10.46;100.00;100614.75;10516329;28;20044;-78
2022/11/16 05:53:02;;;;;;;0.30;0.30;;;;;;;10.42;100.00;100607.81;10525654;28;20047;-79
2022/11/16 05:58:04;;;;;;;1.85;1.00;;;;;;;10.41;100.00;100624.09;10525426;28;20150;-79
2022/11/16 06:03:07;;;;;;;0.80;0.50;;;;;;;10.36;100.00;100638.53;10526044;28;20122;-80
2022/11/16 06:08:10;;;;;;;1.85;0.70;;;;;;;10.34;100.00;100650.53;10527920;28;20044;-79
2022/11/16 06:13:12;;;;;;;0.85;0.65;;;;;;;10.28;100.00;100661.53;10530176;28;20066;-79
2022/11/16 06:18:14;;;;;;;0.25;0.25;;;;;;;10.24;100.00;100649.44;10510872;28;20396;-79
2022/11/16 06:23:17;;;;;;;0.13;0.10;;;;;;;10.24;100.00;100654.59;10528327;28;20052;-79
2022/11/16 06:28:20;;;;;;;0.75;0.47;;;;;;;10.21;100.00;100664.81;10526876;28;20085;-78
2022/11/16 06:33:22;;;;;;;1.02;0.15;;;;;;;10.19;100.00;100664.78;10545903;28;20036;-79
2022/11/16 06:38:24;;;;;;;1.23;0.40;;;;;;;10.14;100.00;100661.22;10530493;28;20063;-78
2022/11/16 06:43:28;;;;;;;0.98;0.52;;;;;;;10.00;100.00;100672.06;10529216;28;20044;-79
2022/11/16 06:48:30;;;;;;;0.25;0.22;;;;;;;9.98;100.00;100685.72;10497417;28;20048;-78
2022/11/16 06:53:32;;;;;;;0.20;0.13;;;;;;;9.92;100.00;100680.41;10541922;28;20044;-78
2022/11/16 06:58:35;;;;;;;0.40;0.40;;;;;;;9.78;100.00;100685.22;10542012;28;20048;-78
2022/11/16 07:03:38;;;;;;;0.17;0.10;;;;;;;9.64;100.00;100688.31;10525300;28;20063;-77
2022/11/16 07:08:46;;;;;;;0.52;0.50;;;;;;;9.42;100.00;100703.97;10540121;28;20048;-77
2022/11/16 07:13:52;;;;;;;0.00;0.00;;;;;;;9.29;100.00;100715.63;10509243;28;20078;-79
2022/11/16 07:18:58;;;;;;;0.10;0.10;;;;;;;9.07;100.00;100721.88;10507660;28;20054;-79
2022/11/16 07:24:02;;;;;;;0.20;0.20;;;;;;;9.15;100.00;100721.25;10522542;28;20081;-80
2022/11/16 07:29:05;;;;;;;0.17;0.17;;;;;;;9.01;100.00;100735.41;10523537;28;20578;-80
2022/11/16 07:34:10;;;;;;;0.30;0.10;;;;;;;8.93;100.00;100747.13;10528974;28;20043;-80
2022/11/16 07:39:27;;;;;;;1.25;0.80;;;;;;;8.85;100.00;100745.22;10515383;28;20500;-80
2022/11/16 07:45:23;;;;;;;0.10;0.10;;;;;;;8.95;100.00;100760.91;10531731;28;20076;-80
2022/11/16 07:50:30;;;;;;;0.43;0.35;;;;;;;8.94;100.00;100756.59;10524173;28;20496;-80
2022/11/16 07:55:40;;;;;;;1.85;1.02;;;;;;;9.02;100.00;100778.25;10529837;28;20111;-80
2022/11/16 08:00:42;;;;;;;0.80;0.47;;;;;;;9.06;100.00;100785.22;10523626;28;20097;-80
2022/11/16 08:05:57;;;;;;;0.30;0.30;;;;;;;9.27;100.00;100790.13;10521317;28;20068;-80
2022/11/16 08:11:05;;;;;;;0.60;0.28;;;;;;;9.49;100.00;100807.03;10520001;28;20046;-80
2022/11/16 08:16:10;;;;;;;0.05;0.05;;;;;;;9.41;100.00;100798.28;10543227;28;20044;-80
2022/11/16 08:21:15;;;;;;;1.75;0.20;;;;;;;9.36;100.00;100800.69;10538318;28;20048;-79
2022/11/16 08:26:20;;;;;;;0.47;0.25;;;;;;;9.30;100.00;100810.81;10538913;28;20056;-80
2022/11/16 08:31:30;;;;;;;0.60;0.30;;;;;;;9.32;100.00;100808.28;10541320;28;20097;-79
2022/11/16 08:36:42;;;;;;;0.15;0.15;;;;;;;9.38;100.00;100812.72;10554998;28;20040;-79
2022/11/16 08:41:44;;;;;;;0.98;0.60;;;;;;;9.32;100.00;100813.41;10541485;28;20068;-80
2022/11/16 08:46:46;;;;;;;0.73;0.22;;;;;;;9.39;100.00;100820.47;10550843;28;20040;-79
2022/11/16 08:51:59;;;;;;;0.30;0.30;;;;;;;9.57;100.00;100822.72;10524677;28;20044;-80
2022/11/16 08:57:00;;;;;;;0.45;0.45;;;;;;;9.73;100.00;100810.28;10549594;28;20044;-79
2022/11/16 09:02:05;;;;;;;0.85;0.57;;;;;;;9.87;100.00;100819.25;10559438;28;20065;-80
2022/11/16 09:07:06;;;;;;;0.52;0.38;;;;;;;9.94;100.00;100821.16;10528161;28;20478;-79
2022/11/16 09:12:08;;;;;;;0.30;0.30;;;;;;;9.92;100.00;100812.53;10528580;28;20052;-79
2022/11/16 09:17:10;;;;;;;0.10;0.10;;;;;;;9.91;100.00;100794.47;10544875;28;20040;-79
2022/11/16 09:22:12;;;;;;;0.30;0.15;;;;;;;9.94;100.00;100774.00;10530308;28;20093;-80
2022/11/16 09:27:13;;;;;;;6.32;1.35;;;;;;;9.99;100.00;100756.94;10531151;28;20086;-80
2022/11/16 09:32:15;;;;;;;0.25;0.17;;;;;;;10.00;100.00;100697.78;10544900;28;20048;-79
2022/11/16 09:37:18;;;;;;;0.10;0.10;;;;;;;10.14;100.00;100658.63;10529648;28;20043;-79
2022/11/16 09:42:57;;;;;;;0.80;0.43;;;;;;;10.09;100.00;100627.63;10526722;28;20048;-79
2022/11/16 09:48:02;;;;;;;0.55;0.50;;;;;;;10.14;100.00;100587.44;10512152;28;20051;-79
2022/11/16 09:53:19;;;;;;;0.10;0.10;;;;;;;10.07;100.00;100564.97;10518498;28;20388;-80
2022/11/16 09:58:29;;;;;;;0.38;0.20;;;;;;;10.25;100.00;100538.75;10550949;28;20048;-79
2022/11/16 10:03:39;;;;;;;0.05;0.03;;;;;;;10.02;100.00;100506.50;10522512;28;20061;-79
2022/11/16 10:08:44;;;;;;;;;;;;;;;10.06;100.00;100506.59;10537173;28;20044;-79
2022/11/16 10:13:46;;;;;;;1.80;1.20;;;;;;;10.07;100.00;100472.31;10544066;28;20448;-78
2022/11/16 10:18:58;;;;;;;0.20;0.15;;;;;;;10.48;100.00;100445.69;10521928;28;20039;-78
2022/11/16 10:24:24;;;;;;;0.20;0.20;;;;;;;10.90;100.00;100384.59;10540719;28;20483;-80
2022/11/16 10:29:52;;;;;;;0.20;0.00;;;;;;;11.16;100.00;100286.13;10509141;28;20044;-79
2022/11/16 10:35:00;;;;;;;0.13;0.13;;;;;;;10.48;100.00;100255.94;10519425;28;20040;-79
2022/11/16 10:40:20;;;;;;;0.28;0.28;;;;;;;10.55;100.00;100263.78;10509560;28;20051;-78
2022/11/16 10:45:36;;;;;;;0.05;0.05;;;;;;;11.71;100.00;100248.13;10527701;28;20036;-79
2022/11/16 10:50:47;;;;;;;0.75;0.50;;;;;;;11.93;100.00;100216.47;10496836;28;20043;-78
2022/11/16 10:56:10;;;;;;;2.50;2.20;;;;;;;11.86;100.00;100182.88;10518112;28;20044;-79
2022/11/16 11:01:12;;;;;;;0.00;0.00;;;;;;;11.83;100.00;100180.28;10519247;28;20176;-79
2022/11/16 11:06:14;;;;;;;0.05;0.03;;;;;;;11.92;100.00;100166.59;10524418;28;20510;-79
2022/11/16 11:16:42;;;;;;;0.47;0.35;;;;;;;11.15;100.00;100173.53;10526159;28;20040;-79
2022/11/16 11:21:46;;;;;;;0.15;0.10;;;;;;;11.87;100.00;100179.44;10530847;28;20064;-79
2022/11/16 11:26:57;;;;;;;0.43;0.22;;;;;;;11.26;100.00;100156.50;10513161;28;20044;-80
2022/11/16 11:38:44;;;;;;;0.17;0.17;;;;;;;12.11;100.00;100128.03;10354821;22;20052;-80
2022/11/16 11:44:04;;;;;;;1.50;0.20;;;;;;;12.47;100.00;100095.56;10403468;22;20041;-79
2022/11/16 11:49:19;;;;;;;1.30;0.82;;;;;;;12.57;100.00;100097.31;10410185;28;20046;-78
2022/11/16 11:54:28;;;;;;;0.00;0.00;;;;;;;13.12;100.00;100077.69;10414488;28;20052;-79
2022/11/16 11:59:30;;;;;;;0.17;0.10;;;;;;;12.10;100.00;100082.44;10415458;28;20048;-78
2022/11/16 12:04:54;;;;;;;1.65;0.47;;;;;;;12.20;100.00;100082.50;10403350;28;20080;-79
2022/11/16 12:10:22;;;;;;;3.92;1.17;;;;;;;12.62;100.00;100077.50;10388532;28;20412;-79
2022/11/16 12:15:23;;;;;;;3.00;0.10;;;;;;;11.65;100.00;100075.19;10425732;28;20040;-79
2022/11/16 12:20:36;;;;;;;0.40;0.30;;;;;;;11.50;100.00;100087.97;10420703;28;20439;-80
2022/11/16 12:25:53;;;;;;;1.25;0.90;;;;;;;11.54;100.00;100087.97;10443023;28;20098;-79
2022/11/16 12:30:57;;;;;;;0.00;0.00;;;;;;;11.27;100.00;100088.59;10459193;28;20053;-79
2022/11/16 12:36:22;;;;;;;0.00;0.00;;;;;;;12.44;100.00;100075.72;10441267;28;20045;-79
2022/11/16 12:41:45;;;;;;;0.32;0.28;;;;;;;12.77;100.00;100057.78;10448649;28;20057;-79
2022/11/16 12:47:22;;;;;;;0.10;0.10;;;;;;;12.67;100.00;100039.66;10446543;28;20056;-79
2022/11/16 12:53:03;;;;;;;0.00;0.00;;;;;;;11.58;100.00;100055.31;10454885;28;20500;-79
2022/11/16 12:58:23;;;;;;;0.00;0.00;;;;;;;10.92;100.00;100076.19;10434486;28;20048;-79
2022/11/16 13:03:31;;;;;;;0.98;0.85;;;;;;;11.02;100.00;100079.75;10442879;28;20416;-78
2022/11/16 13:08:54;;;;;;;0.00;0.00;;;;;;;10.90;100.00;100086.50;10443619;28;20056;-78
2022/11/16 13:14:03;;;;;;;0.00;0.00;;;;;;;10.97;100.00;100084.84;10443969;28;20040;-79
2022/11/16 13:19:08;;;;;;;0.20;0.20;;;;;;;11.09;100.00;100086.72;10441925;28;20049;-77
2022/11/16 13:24:22;;;;;;;0.10;0.03;;;;;;;10.98;100.00;100078.88;10439941;28;20493;-78
2022/11/16 13:29:32;;;;;;;0.90;0.13;;;;;;;11.16;100.00;100073.03;10442697;28;20370;-76
2022/11/16 13:34:37;;;;;;;;;;;;;;;11.48;100.00;100063.88;10440136;28;20040;-77
2022/11/16 13:39:57;;;;;;;0.00;0.00;;;;;;;11.34;100.00;100046.56;10445346;28;20007;-77
2022/11/16 13:45:31;;;;;;;5.38;1.55;;;;;;;11.52;100.00;100025.22;10437754;28;20048;-77
2022/11/16 13:50:37;;;;;;;0.10;0.10;;;;;;;12.79;100.00;100009.53;10417997;28;20049;-78
2022/11/16 13:55:45;;;;;;;0.00;0.00;;;;;;;12.79;100.00;99994.00;10431022;28;20047;-77
2022/11/16 14:01:00;;;;;;;0.00;0.00;;;;;;;12.41;100.00;99990.47;10450269;28;20128;-78
2022/11/16 14:06:19;;;;;;;0.73;0.40;;;;;;;12.29;100.00;99996.44;10453633;28;20102;-77
2022/11/16 14:11:37;;;;;;;3.70;1.83;;;;;;;12.27;100.00;99989.56;10423713;28;20037;-77
2022/11/16 14:16:43;;;;;;;0.60;0.30;;;;;;;12.34;100.00;99996.47;10421776;28;20120;-77
2022/11/16 14:22:06;;;;;;;0.85;0.40;;;;;;;12.13;100.00;99980.03;10402336;28;20049;-77
2022/11/16 14:27:29;;;;;;;0.00;0.00;;;;;;;12.03;100.00;99975.66;10436506;28;20067;-76
2022/11/16 14:32:43;;;;;;;0.00;0.00;;;;;;;11.80;100.00;99983.28;10436579;28;20037;-78
2022/11/16 14:37:44;;;;;;;0.03;0.00;;;;;;;11.35;100.00;99986.41;10454267;28;20056;-77
2022/11/16 14:42:53;;;;;;;0.20;0.10;;;;;;;11.36;100.00;99987.25;10438791;28;20098;-78
2022/11/16 14:48:21;;;;;;;1.65;0.20;;;;;;;11.24;100.00;99998.31;10486552;28;20045;-79
2022/11/16 14:53:24;;;;;;;0.38;0.10;;;;;;;11.07;100.00;99990.44;10444609;28;20258;-79
2022/11/16 14:58:26;;;;;;;0.10;0.10;;;;;;;10.83;100.00;99996.22;10431457;28;20037;-79
2022/11/16 15:03:32;;;;;;;0.25;0.20;;;;;;;10.81;100.00;99997.91;10431618;28;20049;-79
2022/11/16 15:08:46;;;;;;;0.13;0.08;;;;;;;10.69;100.00;100008.97;10434830;28;20044;-79
2022/11/16 15:13:54;;;;;;;0.60;0.17;;;;;;;10.54;100.00;100004.47;10448710;28;20049;-79
2022/11/16 15:18:59;;;;;;;0.00;0.00;;;;;;;10.21;100.00;100010.94;10440220;28;20051;-79
2022/11/16 15:24:21;;;;;;;0.13;0.10;;;;;;;10.17;100.00;99999.72;10427185;28;20431;-80
2022/11/16 15:29:33;;;;;;;;;;;;;;;9.98;100.00;100008.91;10442195;28;20045;-79
2022/11/16 15:34:38;;;;;;;0.20;0.10;;;;;;;9.81;100.00;100006.94;10424139;28;20346;-79
2022/11/16 15:39:41;;;;;;;0.32;0.32;;;;;;;9.60;100.00;100011.78;10428787;28;20049;-79
2022/11/16 15:45:05;;;;;;;0.28;0.20;;;;;;;9.71;100.00;100015.41;10452250;28;20446;-79
2022/11/16 15:50:18;;;;;;;0.00;0.00;;;;;;;9.64;100.00;100003.28;10446985;28;20132;-79
2022/11/16 15:55:38;;;;;;;1.85;0.45;;;;;;;9.67;100.00;100008.47;10427735;28;20094;-79
2022/11/16 16:00:40;;;;;;;0.15;0.15;;;;;;;9.66;100.00;100011.88;10441045;28;20052;-79
2022/11/16 16:05:54;;;;;;;0.00;0.00;;;;;;;9.69;100.00;100006.78;10462949;28;20504;-79
2022/11/16 16:11:14;;;;;;;0.60;0.38;;;;;;;9.72;100.00;100009.38;10435565;28;20103;-79
2022/11/16 16:16:36;;;;;;;0.30;0.10;;;;;;;9.87;100.00;99995.91;10437647;28;20408;-78
2022/11/16 16:21:41;;;;;;;0.10;0.10;;;;;;;9.80;100.00;99974.34;10458168;28;20045;-79
2022/11/16 16:26:43;;;;;;;1.38;0.40;;;;;;;9.75;100.00;99960.56;10461929;28;20041;-79
2022/11/16 16:31:46;;;;;;;0.00;0.00;;;;;;;9.82;100.00;99967.53;10445102;28;20120;-80
2022/11/16 16:36:59;;;;;;;0.03;0.03;;;;;;;9.83;100.00;99969.25;10444861;28;20049;-79
2022/11/16 16:42:01;;;;;;;0.55;0.22;;;;;;;9.85;100.00;99971.84;10428034;28;20488;-78
2022/11/16 16:47:03;;;;;;;0.10;0.08;;;;;;;9.73;100.00;99956.25;10431110;28;20079;-78
2022/11/16 16:52:06;;;;;;;1.48;1.40;;;;;;;9.73;100.00;99975.09;10462301;28;20053;-79
2022/11/16 16:57:15;;;;;;;0.68;0.35;;;;;;;9.78;100.00;99986.34;10436988;28;20109;-79
2022/11/16 17:02:17;;;;;;;1.45;0.32;;;;;;;9.76;100.00;99962.31;10429632;28;20080;-79
2022/11/16 17:07:18;;;;;;;0.68;0.30;;;;;;;9.76;100.00;99952.00;10446894;28;20562;-79
2022/11/16 17:12:20;;;;;;;0.10;0.10;;;;;;;9.82;100.00;99952.09;10449484;28;20136;-79
2022/11/16 17:17:24;;;;;;;1.65;0.73;;;;;;;9.78;100.00;99929.75;10444194;28;20087;-78
2022/11/16 17:22:26;;;;;;;0.10;0.05;;;;;;;9.68;100.00;99921.03;10432947;28;20045;-78
2022/11/16 17:27:28;;;;;;;0.22;0.10;;;;;;;9.73;100.00;99921.09;10429333;28;20037;-79
2022/11/16 17:32:30;;;;;;;0.10;0.10;;;;;;;9.63;100.00;99924.41;10436173;28;20045;-79
2022/11/16 17:37:31;;;;;;;0.00;0.00;;;;;;;9.58;100.00;99911.47;10443672;28;20041;-79
2022/11/16 17:42:34;;;;;;;2.08;0.88;;;;;;;9.52;100.00;99914.81;10474554;28;20100;-79
2022/11/16 17:47:36;;;;;;;0.20;0.15;;;;;;;9.56;100.00;99909.72;10441308;28;20045;-79
2022/11/16 17:52:37;;;;;;;0.43;0.10;;;;;;;9.48;100.00;99914.75;10447689;28;20099;-80
2022/11/16 17:57:39;;;;;;;0.50;0.50;;;;;;;9.43;100.00;99916.41;10422133;28;20040;-79
2022/11/16 18:02:40;;;;;;;0.50;0.50;;;;;;;9.36;100.00;99902.56;10434522;28;20110;-80
2022/11/16 18:07:42;;;;;;;0.05;0.05;;;;;;;9.20;100.00;99898.91;10457768;28;20053;-80
2022/11/16 18:12:44;;;;;;;0.70;0.30;;;;;;;9.10;100.00;99907.31;10427298;28;20102;-79
2022/11/16 18:17:46;;;;;;;1.67;0.32;;;;;;;8.95;100.00;99908.78;10439129;28;20045;-79
2022/11/16 18:22:47;;;;;;;0.00;0.00;;;;;;;8.78;100.00;99902.53;10455187;28;20158;-79
2022/11/16 18:27:54;;;;;;;0.00;0.00;;;;;;;8.78;100.00;99911.09;10436900;28;20041;-80
2022/11/16 18:32:55;;;;;;;0.00;0.00;;;;;;;8.76;100.00;99914.47;10453737;28;20516;-79
2022/11/16 18:37:57;;;;;;;0.30;0.30;;;;;;;8.75;100.00;99905.88;10427343;28;20091;-79
2022/11/16 18:42:58;;;;;;;0.57;0.50;;;;;;;8.77;100.00;99899.09;10447486;28;20045;-79
2022/11/16 18:48:00;;;;;;;0.32;0.30;;;;;;;8.69;100.00;99898.09;10432524;28;20040;-79
2022/11/16 18:53:02;;;;;;;0.03;0.03;;;;;;;8.64;100.00;99889.44;10429787;28;20040;-79
2022/11/16 18:58:04;;;;;;;0.52;0.52;;;;;;;8.73;100.00;99897.31;10421857;28;20076;-77
2022/11/16 19:03:26;;;;;;;0.15;0.00;;;;;;;8.69;100.00;99892.94;10443122;28;20504;-77
2022/11/16 19:08:28;;;;;;;0.30;0.20;;;;;;;8.68;100.00;99893.78;10441640;28;20097;-78
2022/11/16 19:13:30;;;;;;;0.47;0.20;;;;;;;8.60;100.00;99903.09;10398567;28;20053;-78
2022/11/16 19:18:34;;;;;;;0.00;0.00;;;;;;;8.71;100.00;99888.72;10426329;28;20084;-79
2022/11/16 19:23:43;;;;;;;0.85;0.45;;;;;;;8.64;100.00;99886.88;10428913;28;20174;-78
2022/11/16 19:28:47;;;;;;;0.00;0.00;;;;;;;8.61;100.00;99881.66;10442487;28;20082;-78
2022/11/16 19:33:53;;;;;;;0.20;0.20;;;;;;;8.65;100.00;99873.19;10431449;28;20045;-78
2022/11/16 19:38:57;;;;;;;0.13;0.13;;;;;;;8.71;100.00;99866.44;10441646;28;20071;-78
2022/11/16 19:44:00;;;;;;;1.00;0.40;;;;;;;8.88;100.00;99871.00;10425099;28;20103;-78
2022/11/16 19:49:02;;;;;;;0.00;0.00;;;;;;;8.88;100.00;99846.19;10410605;28;20124;-79
2022/11/16 19:54:04;;;;;;;0.47;0.47;;;;;;;8.89;100.00;99837.66;10439563;28;20033;-77
2022/11/16 19:59:07;;;;;;;1.08;0.10;;;;;;;9.01;100.00;99833.53;10426585;28;20049;-77
2022/11/16 20:04:09;;;;;;;0.35;0.30;;;;;;;9.20;100.00;99835.53;10441954;28;20044;-79
2022/11/16 20:09:13;;;;;;;0.20;0.17;;;;;;;9.29;100.00;99821.97;10425395;28;20041;-78
2022/11/16 20:14:15;;;;;;;0.22;0.10;;;;;;;9.31;100.00;99807.41;10477606;28;20048;-79
2022/11/16 20:19:18;;;;;;;0.13;0.10;;;;;;;9.28;100.00;99796.22;10442690;28;20561;-79
2022/11/16 20:24:19;;;;;;;0.73;0.20;;;;;;;9.35;100.00;99787.75;10418173;28;20492;-79
2022/11/16 20:29:21;;;;;;;0.00;0.00;;;;;;;9.38;100.00;99769.78;10434694;28;20094;-79
2022/11/16 20:34:23;;;;;;;0.10;0.10;;;;;;;9.33;100.00;99767.16;10436501;28;20036;-79
2022/11/16 20:39:25;;;;;;;0.45;0.25;;;;;;;9.35;100.00;99738.91;10430877;28;20037;-79
2022/11/16 20:44:28;;;;;;;1.33;0.93;;;;;;;9.26;100.00;99738.81;10436886;28;20045;-79
2022/11/16 20:49:30;;;;;;;0.17;0.10;;;;;;;9.20;100.00;99737.88;10428303;28;20049;-80
2022/11/16 20:54:32;;;;;;;0.20;0.17;;;;;;;9.18;100.00;99726.72;10426210;28;20389;-78
2022/11/16 20:59:34;;;;;;;0.03;0.03;;;;;;;9.25;100.00;99732.78;10447377;28;20045;-79
2022/11/16 21:04:35;;;;;;;0.30;0.17;;;;;;;9.32;100.00;99729.44;10437316;28;20041;-78
2022/11/16 21:14:59;;;;;;;0.10;0.10;;;;;;;9.34;100.00;99698.66;10430401;28;20041;-79
2022/11/16 21:20:01;;;;;;;1.63;0.85;;;;;;;9.49;100.00;99680.78;10423996;28;20037;-79
2022/11/16 21:25:23;;;;;;;1.17;0.55;;;;;;;9.53;100.00;99677.41;10422587;28;20084;-79
2022/11/16 21:30:24;;;;;;;0.43;0.28;;;;;;;9.60;100.00;99667.19;10423509;28;20106;-79
2022/11/16 21:35:29;;;;;;;0.90;0.20;;;;;;;9.57;100.00;99662.88;10432631;28;20038;-79
2022/11/16 21:40:30;;;;;;;0.32;0.22;;;;;;;9.67;100.00;99648.41;10462081;28;20041;-78
2022/11/16 21:45:34;;;;;;;0.17;0.17;;;;;;;9.67;100.00;99632.97;10447400;28;20044;-79
2022/11/16 21:50:36;;;;;;;0.20;0.20;;;;;;;9.72;100.00;99618.44;10439217;28;20500;-76
2022/11/16 21:55:37;;;;;;;0.95;0.40;;;;;;;9.81;100.00;99605.66;10438611;28;20143;-79
2022/11/16 22:00:39;;;;;;;0.00;0.00;;;;;;;9.78;100.00;99585.06;10436887;28;20068;-78
2022/11/16 22:11:01;;;;;;;;;;;;;;;9.77;100.00;99573.06;10440520;28;20099;-78
2022/11/16 22:16:04;;;;;;;0.22;0.15;;;;;;;9.74;100.00;99552.44;10458723;28;20281;-78
2022/11/16 22:21:06;;;;;;;0.77;0.60;;;;;;;9.69;100.00;99543.84;10441885;28;20060;-80
2022/11/16 22:26:10;;;;;;;0.52;0.32;;;;;;;9.65;100.00;99536.94;10440080;28;20127;-80
2022/11/16 22:31:13;;;;;;;0.10;0.10;;;;;;;9.66;100.00;99543.81;10452929;28;20055;-78
2022/11/16 22:36:15;;;;;;;0.10;0.10;;;;;;;9.61;100.00;99535.22;10440661;28;20408;-80
2022/11/16 22:41:16;;;;;;;0.15;0.15;;;;;;;9.53;100.00;99528.28;10437096;28;20385;-79
2022/11/16 22:46:43;;;;;;;1.10;0.30;;;;;;;9.60;100.00;99528.34;10434070;28;20083;-78
2022/11/16 22:51:45;;;;;;;0.28;0.22;;;;;;;9.58;100.00;99517.16;10442103;28;20040;-78
2022/11/16 22:56:49;;;;;;;0.00;0.00;;;;;;;9.62;100.00;99498.38;10423814;28;20492;-79
2022/11/16 23:01:53;;;;;;;0.20;0.15;;;;;;;9.61;100.00;99494.06;10437117;28;20056;-79
2022/11/16 23:06:54;;;;;;;2.63;0.38;;;;;;;9.57;100.00;99477.75;10437199;28;20095;-78
2022/11/16 23:17:19;;;;;;;0.00;0.00;;;;;;;9.38;100.00;99463.91;10455726;28;20040;-79
2022/11/16 23:27:57;;;;;;;0.52;0.30;;;;;;;9.30;100.00;99453.59;10454813;28;20643;-79
2022/11/16 23:33:01;;;;;;;0.10;0.05;;;;;;;9.27;100.00;99435.56;10422978;28;20713;-79
2022/11/16 23:38:05;;;;;;;0.30;0.20;;;;;;;9.19;100.00;99420.09;10437210;28;20040;-78
2022/11/16 23:48:49;;;;;;;2.35;2.15;;;;;;;9.06;100.00;99402.84;10357540;28;20049;-78
2022/11/16 23:53:52;;;;;;;0.10;0.10;;;;;;;9.01;100.00;99394.25;10419794;28;20497;-77
2022/11/16 23:58:56;;;;;;;0.85;0.40;;;;;;;9.02;100.00;99393.41;10437423;28;20127;-79
